createdAt,value
2023-02-13T00:00:22.669Z,149.90
2023-02-13T00:02:49.321Z,157.63
2023-02-13T00:05:15.962Z,164.82
2023-02-13T00:07:42.716Z,169.23
2023-02-13T00:10:09.789Z,236.07
2023-02-13T00:12:36.764Z,176.48
2023-02-13T00:15:04.146Z,230.57
2023-02-13T00:17:30.747Z,188.63
2023-02-13T00:19:57.765Z,170.02
2023-02-13T00:22:24.650Z,171.88
2023-02-13T00:24:51.462Z,162.98
2023-02-13T00:27:18.449Z,155.57
2023-02-13T00:29:45.093Z,165.43
2023-02-13T00:32:12.043Z,168.13
2023-02-13T00:34:38.791Z,148.52
2023-02-13T00:37:05.499Z,193.13
2023-02-13T00:39:32.035Z,159.65
2023-02-13T00:41:58.666Z,153.18
2023-02-13T00:44:25.410Z,152.88
2023-02-13T00:46:52.010Z,153.98
2023-02-13T00:49:18.585Z,162.65
2023-02-13T00:51:45.257Z,169.25
2023-02-13T00:54:11.766Z,179.70
2023-02-13T00:56:38.464Z,205.75
2023-02-13T00:59:06.121Z,156.90
2023-02-13T01:01:32.808Z,260.02
2023-02-13T01:03:59.909Z,194.95
2023-02-13T01:06:27.633Z,165.73
2023-02-13T01:08:54.364Z,148.13
2023-02-13T01:11:21.142Z,147.35
2023-02-13T01:13:47.792Z,117.38
2023-02-13T01:16:15.950Z,149.07
2023-02-13T01:18:42.581Z,139.82
2023-02-13T01:21:16.495Z,134.20
2023-02-13T01:23:43.111Z,125.35
2023-02-13T01:26:16.554Z,129.00
2023-02-13T01:28:43.310Z,142.20
2023-02-13T01:31:11.375Z,140.73
2023-02-13T01:33:38.074Z,155.82
2023-02-13T01:36:10.175Z,130.38
2023-02-13T01:38:38.235Z,125.57
2023-02-13T01:41:04.998Z,120.82
2023-02-13T01:43:54.115Z,89.25
2023-02-13T01:46:50.425Z,121.97
2023-02-13T01:49:20.938Z,100.93
2023-02-13T01:51:49.791Z,92.05
2023-02-13T01:54:22.575Z,88.65
2023-02-13T01:56:55.557Z,90.38
2023-02-13T01:59:33.405Z,86.65
2023-02-13T02:02:01.447Z,79.10
2023-02-13T02:04:38.296Z,82.93
2023-02-13T02:07:18.969Z,72.88
2023-02-13T02:09:48.013Z,74.43
2023-02-13T02:12:24.319Z,74.03
2023-02-13T02:14:53.924Z,69.20
2023-02-13T02:17:23.746Z,71.53
2023-02-13T02:20:24.536Z,68.65
2023-02-13T02:23:04.512Z,65.97
2023-02-13T02:25:38.978Z,70.15
2023-02-13T02:28:21.716Z,74.15
2023-02-13T02:31:00.767Z,71.55
2023-02-13T02:33:45.939Z,64.82
2023-02-13T02:36:22.954Z,67.07
2023-02-13T02:38:58.585Z,72.20
2023-02-13T02:41:45.559Z,63.53
2023-02-13T02:44:35.616Z,71.10
2023-02-13T02:47:43.175Z,66.80
2023-02-13T02:50:32.758Z,65.38
2023-02-13T02:53:14.528Z,66.05
2023-02-13T02:55:43.606Z,52.05
2023-02-13T02:58:30.191Z,49.53
2023-02-13T03:01:19.725Z,43.63
2023-02-13T03:04:06.137Z,42.75
2023-02-13T03:06:46.345Z,41.83
2023-02-13T03:09:37.541Z,41.83
2023-02-13T03:12:23.262Z,41.92
2023-02-13T03:14:49.934Z,66.28
2023-02-13T03:17:37.796Z,66.03
2023-02-13T03:20:52.234Z,68.55
2023-02-13T03:24:11.323Z,63.42
2023-02-13T03:26:50.362Z,61.35
2023-02-13T03:29:51.615Z,57.80
2023-02-13T03:32:32.441Z,60.95
2023-02-13T03:35:27.840Z,61.22
2023-02-13T03:38:01.118Z,60.35
2023-02-13T03:40:59.835Z,56.75
2023-02-13T03:43:29.879Z,58.25
2023-02-13T03:45:58.066Z,59.78
2023-02-13T03:48:49.915Z,61.72
2023-02-13T03:51:23.673Z,65.97
2023-02-13T03:53:54.742Z,64.93
2023-02-13T03:56:40.520Z,62.10
2023-02-13T03:59:18.882Z,66.32
2023-02-13T04:01:51.585Z,56.40
2023-02-13T04:04:35.642Z,61.05
2023-02-13T04:07:10.614Z,58.05
2023-02-13T04:09:39.983Z,60.80
2023-02-13T04:12:45.030Z,62.90
2023-02-13T04:15:20.514Z,56.78
2023-02-13T04:17:53.852Z,53.10
2023-02-13T04:20:20.726Z,55.42
2023-02-13T04:22:48.371Z,56.38
2023-02-13T04:25:17.886Z,55.88
2023-02-13T04:27:44.609Z,56.63
2023-02-13T04:30:12.362Z,60.22
2023-02-13T04:32:38.921Z,61.13
2023-02-13T04:35:06.042Z,64.20
2023-02-13T04:37:32.637Z,61.88
2023-02-13T04:39:59.279Z,65.18
2023-02-13T04:42:25.925Z,63.63
2023-02-13T04:44:52.500Z,60.28
2023-02-13T04:47:18.990Z,60.58
2023-02-13T04:49:45.757Z,60.55
2023-02-13T04:52:12.334Z,61.95
2023-02-13T04:54:38.930Z,59.83
2023-02-13T04:57:05.491Z,56.05
2023-02-13T04:59:32.377Z,60.85
2023-02-13T05:01:59.344Z,59.38
2023-02-13T05:04:26.165Z,63.85
2023-02-13T05:06:52.859Z,55.72
2023-02-13T05:09:19.466Z,62.83
2023-02-13T05:11:46.026Z,62.13
2023-02-13T05:14:12.809Z,58.17
2023-02-13T05:16:39.353Z,58.63
2023-02-13T05:19:06.076Z,64.88
2023-02-13T05:21:51.412Z,61.50
2023-02-13T05:24:20.368Z,58.03
2023-02-13T05:26:47.404Z,64.05
2023-02-13T05:29:20.128Z,100.55
2023-02-13T05:31:48.411Z,68.68
2023-02-13T05:34:16.308Z,60.97
2023-02-13T05:36:43.107Z,88.28
2023-02-13T05:39:09.765Z,68.45
2023-02-13T05:41:36.463Z,62.88
2023-02-13T05:44:03.543Z,63.33
2023-02-13T05:46:30.169Z,65.32
2023-02-13T05:48:56.800Z,56.47
2023-02-13T05:51:23.625Z,53.83
2023-02-13T05:53:50.159Z,52.17
2023-02-13T05:56:16.831Z,50.17
2023-02-13T05:58:45.117Z,56.22
2023-02-13T06:01:11.883Z,56.42
2023-02-13T06:03:40.210Z,67.30
2023-02-13T06:06:07.497Z,78.25
2023-02-13T06:08:34.180Z,75.32
2023-02-13T06:11:01.864Z,79.72
2023-02-13T06:13:28.641Z,83.45
2023-02-13T06:15:58.103Z,83.70
2023-02-13T06:18:24.996Z,80.95
2023-02-13T06:20:51.678Z,96.55
2023-02-13T06:23:18.432Z,112.95
2023-02-13T06:25:44.985Z,102.30
2023-02-13T06:28:11.670Z,98.38
2023-02-13T06:30:38.294Z,100.07
2023-02-13T06:33:04.931Z,104.63
2023-02-13T06:35:32.328Z,97.63
2023-02-13T06:37:58.896Z,99.30
2023-02-13T06:40:25.813Z,106.05
2023-02-13T06:42:52.722Z,117.13
2023-02-13T06:45:19.463Z,115.88
2023-02-13T06:47:48.742Z,97.35
2023-02-13T06:50:18.243Z,115.43
2023-02-13T06:52:52.193Z,119.68
2023-02-13T06:55:19.278Z,107.55
2023-02-13T06:57:46.079Z,94.57
2023-02-13T07:00:14.596Z,100.88
2023-02-13T07:02:43.107Z,124.75
2023-02-13T07:05:11.521Z,103.53
2023-02-13T07:07:40.964Z,103.95
2023-02-13T07:10:10.525Z,88.68
2023-02-13T07:12:37.270Z,96.85
2023-02-13T07:15:05.027Z,93.47
2023-02-13T07:17:32.365Z,97.00
2023-02-13T07:19:59.265Z,91.22
2023-02-13T07:22:25.903Z,84.95
2023-02-13T07:24:52.648Z,90.65
2023-02-13T07:27:19.216Z,86.95
2023-02-13T07:29:45.885Z,98.25
2023-02-13T07:32:12.647Z,95.78
2023-02-13T07:34:44.456Z,90.18
2023-02-13T07:37:16.099Z,78.70
2023-02-13T07:39:42.894Z,85.43
2023-02-13T07:42:09.745Z,78.50
2023-02-13T07:44:37.001Z,70.88
2023-02-13T07:47:04.257Z,66.20
2023-02-13T07:49:30.937Z,65.80
2023-02-13T07:51:58.496Z,63.63
2023-02-13T07:54:25.103Z,66.05
2023-02-13T07:56:51.832Z,64.32
2023-02-13T07:59:18.459Z,58.90
2023-02-13T08:01:45.125Z,60.33
2023-02-13T08:04:11.789Z,57.50
2023-02-13T08:06:42.567Z,53.70
2023-02-13T08:09:39.529Z,56.42
2023-02-13T08:12:09.128Z,57.85
2023-02-13T08:14:38.788Z,61.55
2023-02-13T08:17:05.346Z,51.90
2023-02-13T08:19:32.032Z,59.30
2023-02-13T08:21:58.732Z,53.00
2023-02-13T08:24:25.413Z,54.08
2023-02-13T08:26:52.124Z,51.50
2023-02-13T08:29:18.799Z,47.35
2023-02-13T08:31:45.685Z,52.58
2023-02-13T08:34:12.553Z,55.45
2023-02-13T08:36:39.279Z,59.03
2023-02-13T08:39:06.091Z,60.50
2023-02-13T08:41:32.813Z,68.13
2023-02-13T08:43:59.381Z,67.78
2023-02-13T08:46:26.083Z,60.60
2023-02-13T08:48:52.760Z,63.67
2023-02-13T08:51:19.461Z,63.00
2023-02-13T08:53:46.191Z,52.63
2023-02-13T08:56:13.099Z,54.50
2023-02-13T08:59:58.904Z,53.10
2023-02-13T09:02:25.769Z,45.33
2023-02-13T09:04:52.392Z,55.53
2023-02-13T09:07:19.068Z,57.33
2023-02-13T09:09:45.676Z,49.78
2023-02-13T09:12:13.499Z,50.05
2023-02-13T09:14:40.690Z,56.47
2023-02-13T09:17:07.332Z,53.00
2023-02-13T09:19:35.310Z,48.20
2023-02-13T09:22:01.923Z,51.83
2023-02-13T09:24:28.673Z,46.03
2023-02-13T09:26:56.683Z,53.75
2023-02-13T09:29:23.784Z,52.88
2023-02-13T09:31:50.787Z,58.72
2023-02-13T09:34:17.667Z,57.42
2023-02-13T09:36:44.188Z,53.45
2023-02-13T09:39:10.917Z,56.75
2023-02-13T09:41:40.964Z,62.30
2023-02-13T09:44:34.110Z,51.75
2023-02-13T09:47:16.244Z,53.90
2023-02-13T09:49:48.645Z,55.42
2023-02-13T09:52:18.044Z,49.85
2023-02-13T09:54:44.811Z,57.90
2023-02-13T09:57:20.110Z,55.85
2023-02-13T10:00:11.865Z,55.28
2023-02-13T10:02:47.882Z,50.53
2023-02-13T10:05:31.762Z,52.45
2023-02-13T10:08:12.861Z,51.15
2023-02-13T10:11:05.071Z,54.25
2023-02-13T10:13:50.147Z,52.20
2023-02-13T10:16:23.409Z,47.88
2023-02-13T10:18:56.205Z,49.10
2023-02-13T10:24:45.961Z,46.88
2023-02-13T10:27:19.290Z,51.42
2023-02-13T10:30:12.610Z,45.63
2023-02-13T10:32:52.209Z,46.00
2023-02-13T10:35:27.361Z,44.55
2023-02-13T10:37:57.206Z,46.47
2023-02-13T10:40:32.192Z,43.92
2023-02-13T10:42:58.715Z,42.42
2023-02-13T10:45:58.144Z,39.28
2023-02-13T10:49:01.380Z,39.30
2023-02-13T10:52:11.370Z,33.95
2023-02-13T10:55:08.506Z,34.13
2023-02-13T10:57:57.972Z,32.45
2023-02-13T11:00:42.837Z,33.13
2023-02-13T11:03:21.984Z,31.48
2023-02-13T11:05:49.959Z,30.80
2023-02-13T11:08:24.409Z,33.45
2023-02-13T11:10:52.268Z,26.55
2023-02-13T11:13:27.519Z,30.90
2023-02-13T11:16:07.314Z,32.35
2023-02-13T11:18:41.020Z,33.42
2023-02-13T11:21:21.939Z,28.98
2023-02-13T11:23:56.261Z,23.52
2023-02-13T11:26:31.726Z,21.45
2023-02-13T11:29:04.212Z,18.48
2023-02-13T11:31:36.855Z,20.08
2023-02-13T11:34:26.301Z,19.70
2023-02-13T11:37:14.788Z,18.40
2023-02-13T11:39:42.691Z,29.88
2023-02-13T11:42:35.637Z,30.60
2023-02-13T11:45:24.080Z,18.25
2023-02-13T11:47:51.958Z,17.20
2023-02-13T11:50:24.342Z,16.60
2023-02-13T11:53:22.945Z,18.42
2023-02-13T11:56:13.632Z,18.63
2023-02-13T11:58:41.273Z,12.35
2023-02-13T12:01:20.105Z,13.65
2023-02-13T12:04:28.218Z,15.13
2023-02-13T12:07:12.502Z,13.40
2023-02-13T12:09:43.992Z,16.33
2023-02-13T12:12:18.573Z,14.80
2023-02-13T12:14:46.276Z,17.52
2023-02-13T12:17:30.701Z,39.08
2023-02-13T12:19:59.210Z,26.10
2023-02-13T12:22:50.714Z,31.52
2023-02-13T12:25:39.520Z,18.80
2023-02-13T12:28:17.272Z,17.83
2023-02-13T12:31:09.145Z,14.30
2023-02-13T12:34:00.426Z,14.27
2023-02-13T12:36:43.200Z,17.77
2023-02-13T12:39:12.763Z,15.55
2023-02-13T12:41:58.218Z,24.40
2023-02-13T12:44:45.904Z,14.90
2023-02-13T12:47:27.422Z,16.50
2023-02-13T12:50:28.771Z,18.63
2023-02-13T12:53:20.526Z,21.63
2023-02-13T12:56:18.558Z,22.63
2023-02-13T12:59:00.309Z,18.58
2023-02-13T13:02:07.251Z,14.43
2023-02-13T13:05:02.437Z,15.75
2023-02-13T13:07:31.781Z,14.27
2023-02-13T13:10:38.752Z,23.80
2023-02-13T13:13:12.957Z,22.95
2023-02-13T13:16:02.159Z,19.02
2023-02-13T13:18:53.645Z,23.80
2023-02-13T13:21:44.954Z,33.13
2023-02-13T13:24:49.939Z,21.73
2023-02-13T13:27:24.742Z,35.60
2023-02-13T13:30:01.881Z,40.25
2023-02-13T13:32:30.462Z,29.20
2023-02-13T13:34:58.097Z,36.83
2023-02-13T13:37:46.613Z,39.00
2023-02-13T13:40:49.376Z,33.05
2023-02-13T13:43:27.799Z,21.60
2023-02-13T13:46:12.138Z,22.30
2023-02-13T13:49:05.726Z,24.58
2023-02-13T13:51:32.535Z,23.52
2023-02-13T13:54:08.156Z,27.13
2023-02-13T13:56:53.262Z,32.97
2023-02-13T13:59:51.771Z,42.17
2023-02-13T14:02:18.401Z,34.33
2023-02-13T14:05:18.786Z,26.33
2023-02-13T14:07:47.528Z,22.98
2023-02-13T14:10:26.278Z,27.38
2023-02-13T14:12:55.764Z,33.47
2023-02-13T14:15:34.532Z,32.22
2023-02-13T14:18:14.110Z,28.63
2023-02-13T14:20:50.680Z,23.17
2023-02-13T14:23:32.379Z,24.98
2023-02-13T14:26:17.160Z,37.10
2023-02-13T14:28:57.547Z,31.42
2023-02-13T14:31:31.901Z,33.05
2023-02-13T14:34:05.445Z,32.42
2023-02-13T14:36:37.991Z,35.90
2023-02-13T14:39:18.367Z,33.90
2023-02-13T14:41:58.655Z,27.13
2023-02-13T14:44:51.318Z,25.42
2023-02-13T14:50:32.620Z,22.73
2023-02-13T14:53:05.034Z,26.48
2023-02-13T14:55:36.397Z,29.63
2023-02-13T14:58:10.867Z,21.73
2023-02-13T15:00:45.894Z,22.85
2023-02-13T15:03:28.097Z,20.88
2023-02-13T15:06:02.952Z,24.73
2023-02-13T15:08:36.799Z,30.88
2023-02-13T15:11:03.702Z,31.60
2023-02-13T15:13:37.281Z,32.83
2023-02-13T15:16:08.636Z,34.75
2023-02-13T15:18:41.634Z,23.88
2023-02-13T15:21:15.091Z,36.28
2023-02-13T15:23:42.998Z,33.28
2023-02-13T15:26:19.012Z,31.77
2023-02-13T15:29:01.893Z,55.28
2023-02-13T15:31:33.510Z,29.45
2023-02-13T15:34:01.240Z,22.95
2023-02-13T15:36:36.297Z,24.20
2023-02-13T15:39:09.509Z,21.17
2023-02-13T15:41:43.698Z,21.98
2023-02-13T15:44:18.366Z,14.15
2023-02-13T15:46:48.307Z,14.60
2023-02-13T15:49:20.922Z,18.02
2023-02-13T15:51:50.528Z,14.40
2023-02-13T15:54:30.161Z,16.38
2023-02-13T15:57:00.151Z,16.83
2023-02-13T15:59:33.963Z,16.70
2023-02-13T16:02:03.401Z,15.38
2023-02-13T16:04:31.014Z,16.67
2023-02-13T16:06:58.902Z,16.40
2023-02-13T16:09:30.793Z,14.70
2023-02-13T16:12:01.616Z,14.45
2023-02-13T16:14:31.695Z,11.40
2023-02-13T16:17:00.234Z,11.65
2023-02-13T16:19:26.908Z,11.43
2023-02-13T16:21:57.238Z,12.68
2023-02-13T16:24:25.773Z,10.23
2023-02-13T16:26:52.784Z,11.95
2023-02-13T16:29:22.424Z,12.00
2023-02-13T16:31:52.710Z,13.30
2023-02-13T16:34:28.863Z,9.80
2023-02-13T16:36:56.441Z,10.80
2023-02-13T16:39:27.774Z,11.98
2023-02-13T16:41:54.726Z,10.77
2023-02-13T16:44:23.614Z,11.32
2023-02-13T16:46:53.651Z,11.50
2023-02-13T16:49:23.835Z,12.10
2023-02-13T16:51:55.184Z,12.48
2023-02-13T16:54:24.889Z,44.97
2023-02-13T16:57:19.699Z,33.13
2023-02-13T17:00:24.507Z,18.90
2023-02-13T17:02:51.995Z,16.67
2023-02-13T17:05:27.650Z,19.50
2023-02-13T17:08:00.392Z,18.15
2023-02-13T17:10:35.700Z,16.98
2023-02-13T17:13:13.267Z,17.42
2023-02-13T17:15:44.542Z,18.25
2023-02-13T17:18:11.282Z,20.30
2023-02-13T17:20:41.346Z,18.85
2023-02-13T17:23:17.441Z,17.60
2023-02-13T17:25:46.236Z,16.35
2023-02-13T17:28:15.595Z,17.73
2023-02-13T17:30:43.535Z,18.42
2023-02-13T17:33:25.112Z,19.58
2023-02-13T17:35:53.404Z,22.47
2023-02-13T17:38:20.517Z,20.50
2023-02-13T17:40:47.809Z,22.10
2023-02-13T17:43:16.899Z,20.20
2023-02-13T17:45:43.831Z,20.13
2023-02-13T17:48:10.803Z,23.75
2023-02-13T17:50:38.247Z,19.77
2023-02-13T17:53:07.700Z,19.25
2023-02-13T17:55:37.542Z,18.02
2023-02-13T17:58:04.259Z,17.38
2023-02-13T18:00:33.055Z,19.08
2023-02-13T18:03:00.885Z,20.02
2023-02-13T18:05:28.593Z,20.33
2023-02-13T18:07:55.557Z,20.23
2023-02-13T18:10:27.986Z,21.67
2023-02-13T18:12:57.015Z,21.20
2023-02-13T18:15:24.317Z,22.27
2023-02-13T18:17:51.190Z,22.65
2023-02-13T18:20:20.637Z,23.13
2023-02-13T18:22:50.557Z,21.63
2023-02-13T18:25:19.242Z,18.00
2023-02-13T18:27:46.492Z,17.48
2023-02-13T18:30:17.673Z,20.98
2023-02-13T18:32:45.668Z,20.50
2023-02-13T18:35:12.288Z,18.95
2023-02-13T18:37:39.250Z,20.60
2023-02-13T18:40:09.939Z,19.00
2023-02-13T18:42:38.119Z,19.83
2023-02-13T18:45:04.866Z,21.75
2023-02-13T18:47:31.690Z,19.58
2023-02-13T18:52:12.552Z,19.85
2023-02-13T18:54:39.268Z,21.85
2023-02-13T18:57:06.314Z,20.80
2023-02-13T18:59:34.649Z,20.58
2023-02-13T19:02:03.189Z,23.08
2023-02-13T19:04:30.770Z,26.08
2023-02-13T19:06:57.660Z,23.52
2023-02-13T19:09:24.320Z,22.65
2023-02-13T19:11:51.615Z,25.05
2023-02-13T19:14:18.601Z,26.17
2023-02-13T19:16:45.382Z,25.75
2023-02-13T19:19:12.075Z,23.63
2023-02-13T19:21:39.610Z,21.83
2023-02-13T19:24:17.228Z,26.30
2023-02-13T19:26:44.557Z,22.92
2023-02-13T19:29:11.155Z,23.52
2023-02-13T19:31:39.436Z,23.23
2023-02-13T19:34:06.348Z,24.85
2023-02-13T19:36:33.211Z,23.77
2023-02-13T19:39:04.119Z,23.23
2023-02-13T19:41:31.197Z,24.13
2023-02-13T19:43:58.447Z,23.38
2023-02-13T19:46:27.842Z,25.33
2023-02-13T19:48:54.583Z,24.48
2023-02-13T19:51:24.405Z,22.65
2023-02-13T19:54:06.531Z,24.55
2023-02-13T19:56:36.479Z,22.92
2023-02-13T19:59:06.941Z,21.83
2023-02-13T20:01:33.864Z,21.88
2023-02-13T20:04:03.565Z,21.25
2023-02-13T20:06:36.159Z,20.27
2023-02-13T20:09:09.826Z,21.48
2023-02-13T20:11:39.181Z,20.48
2023-02-13T20:14:11.551Z,20.38
2023-02-13T20:16:39.007Z,21.23
2023-02-13T20:19:11.765Z,19.60
2023-02-13T20:21:42.949Z,21.17
2023-02-13T20:24:12.670Z,20.60
2023-02-13T20:26:39.744Z,20.05
2023-02-13T20:29:07.563Z,19.98
2023-02-13T20:31:35.816Z,19.65
2023-02-13T20:34:05.980Z,19.45
2023-02-13T20:36:33.571Z,20.25
2023-02-13T20:39:03.559Z,20.80
2023-02-13T20:41:33.506Z,21.63
2023-02-13T20:44:05.937Z,20.90
2023-02-13T20:46:35.292Z,20.23
2023-02-13T20:49:02.223Z,19.77
2023-02-13T20:51:31.650Z,22.65
2023-02-13T20:53:59.958Z,22.63
2023-02-13T20:56:30.516Z,20.83
2023-02-13T20:58:59.628Z,21.65
2023-02-13T21:01:32.964Z,23.48
2023-02-13T21:04:00.112Z,20.63
2023-02-13T21:06:32.973Z,19.02
2023-02-13T21:09:00.850Z,19.65
2023-02-13T21:11:30.938Z,21.52
2023-02-13T21:13:58.723Z,32.75
2023-02-13T21:16:28.280Z,34.08
2023-02-13T21:19:00.304Z,21.98
2023-02-13T21:21:31.590Z,20.75
2023-02-13T21:24:08.039Z,37.17
2023-02-13T21:26:35.681Z,22.77
2023-02-13T21:29:02.403Z,21.95
2023-02-13T21:31:35.805Z,22.60
2023-02-13T21:34:08.822Z,21.90
2023-02-13T21:36:36.990Z,22.58
2023-02-13T21:39:06.026Z,23.98
2023-02-13T21:41:32.800Z,22.20
2023-02-13T21:43:59.418Z,26.52
2023-02-13T21:46:29.010Z,28.83
2023-02-13T21:48:58.630Z,22.95
2023-02-13T21:51:27.273Z,22.63
2023-02-13T21:53:57.225Z,21.40
2023-02-13T21:56:26.817Z,27.10
2023-02-13T21:58:54.212Z,25.70
2023-02-13T22:01:27.555Z,26.33
2023-02-13T22:03:59.840Z,26.40
2023-02-13T22:06:28.997Z,25.77
2023-02-13T22:08:57.716Z,25.92
2023-02-13T22:11:24.770Z,25.25
2023-02-13T22:13:55.827Z,27.45
2023-02-13T22:16:22.825Z,25.83
2023-02-13T22:18:50.650Z,26.35
2023-02-13T22:21:20.656Z,23.67
2023-02-13T22:23:48.644Z,27.42
2023-02-13T22:26:20.770Z,95.75
2023-02-13T22:28:48.239Z,31.80
2023-02-13T22:31:15.618Z,27.02
2023-02-13T22:33:42.967Z,26.92
2023-02-13T22:36:12.722Z,30.85
2023-02-13T22:38:40.952Z,52.78
2023-02-13T22:41:12.264Z,25.27
2023-02-13T22:43:39.500Z,29.58
2023-02-13T22:46:27.412Z,26.35
2023-02-13T22:48:54.919Z,27.85
2023-02-13T22:51:24.715Z,27.02
2023-02-13T22:53:56.504Z,43.35
2023-02-13T22:56:24.560Z,24.08
2023-02-13T22:58:51.262Z,24.80
2023-02-13T23:01:20.815Z,25.42
2023-02-13T23:03:47.688Z,27.73
2023-02-13T23:06:15.929Z,28.90
2023-02-13T23:08:42.874Z,26.65
2023-02-13T23:11:31.927Z,26.83
2023-02-13T23:13:59.136Z,26.50
2023-02-13T23:16:26.502Z,24.50
2023-02-13T23:18:56.100Z,25.17
2023-02-13T23:21:23.716Z,24.77
2023-02-13T23:23:50.659Z,25.77
2023-02-13T23:26:18.180Z,26.98
2023-02-13T23:28:44.807Z,25.15
2023-02-13T23:31:11.632Z,28.35
2023-02-13T23:33:38.256Z,27.92
2023-02-13T23:36:05.324Z,25.52
2023-02-13T23:38:31.851Z,27.55
2023-02-13T23:41:06.367Z,22.83
2023-02-13T23:43:33.004Z,26.33
2023-02-13T23:45:59.621Z,26.35
2023-02-13T23:48:26.411Z,26.08
2023-02-13T23:50:53.206Z,50.03
2023-02-13T23:53:22.693Z,26.00
2023-02-13T23:55:49.477Z,26.75
2023-02-13T23:58:16.023Z,30.20
